Darstellungsparameter: Aktuell verwendete Einstellungen:
Skalierung der Graphiken ... ?
xyx+y,   Skalierungsfaktor:      Skalierung: Modus: x, Faktor: 1
Darstellungszeitraum ... ?
Vom - - bis: - -   Zeitraum: 22.02.2011 - 26.02.2011
Min/Max/Avg-Anzeige ... ?
Zeige MMA aktuell
Zeige MMA Monat
Zeige MMA alles
Zeige --A aktuell
Zeige --A Monat
Zeige --A alles
Keine MMA-Anzeige
MMA:
Average (ber die Originaldaten)
MMA-Basis: 22.02.2011 - 26.02.2011
Quicknavigation für Darstellung... ?
Tage:      1T, 2T, 3T, 5T -1T -2T -3T -5T +1T +2T +3T +5T
Wochen: 1W, 2W, 3W -1W -2W -3W +1W +2W +3W
Monate: 1M, 3M, 6M -1M -3M -6M +1M +3M +6M
Jahre:    1J, 3J, 5J, 10J -1J -3J -5J -10J +1J +3J +5J +10J
Nutze für die Darstellung ... ?
Originaldaten oder Mittelwerte auf ...
Stundenbasis Tagesbasis Wochenbasis
Monatsbasis Jahresbasis      Datenbasis: Original-Daten
Darstellen als:
Statistik (Auto) Statistik J:M      Darstellung:
Zur Graphik,    zurück zur Übersicht aller Sensoren.
 
Tabellarische Datenbersicht: ?
 
Sensor: Nr:Datum:Temp:Abs-Feuchte:Windchill:Wind:
Aussen-T/F 1 22-02-2011 00:06:12 -3.9 C 2.1 g/m*3 -3.9 C 0 km/h
2 22-02-2011 00:18:12 -3.7 C 2.17 g/m*3 -3.7 C 0 km/h
3 22-02-2011 00:30:12 -3.6 C 2.11 g/m*3 -3.6 C 0 km/h
4 22-02-2011 00:42:12 -3.3 C 2.11 g/m*3 -3.3 C 0 km/h
5 22-02-2011 00:54:12 -3.3 C 2.08 g/m*3 -3.3 C 0 km/h
6 22-02-2011 01:06:12 -3.1 C 2.11 g/m*3 -3.1 C 0 km/h
7 22-02-2011 01:18:12 -3.1 C 2.07 g/m*3 -3.1 C 0 km/h
8 22-02-2011 01:30:13 -3.2 C 2.05 g/m*3 -3.2 C 0 km/h
9 22-02-2011 01:42:13 -3.3 C 2.04 g/m*3 -3.3 C 0 km/h
10 22-02-2011 01:54:13 -3.2 C 2.05 g/m*3 -3.2 C 0 km/h
11 22-02-2011 02:06:13 -3.3 C 2.04 g/m*3 -3.3 C 0 km/h
12 22-02-2011 02:18:13 -3.3 C 2.04 g/m*3 -3.3 C 0 km/h
13 22-02-2011 02:30:13 -3.3 C 2 g/m*3 -3.3 C 0 km/h
14 22-02-2011 02:42:13 -3.3 C 2 g/m*3 -3.3 C 0 km/h
15 22-02-2011 02:54:13 -3.5 C 2.01 g/m*3 -3.5 C 0 km/h
16 22-02-2011 03:06:13 -3.7 C 1.98 g/m*3 -3.7 C 0 km/h
17 22-02-2011 03:18:13 -3.8 C 1.97 g/m*3 -3.8 C 0 km/h
18 22-02-2011 03:30:13 -4 C 1.94 g/m*3 -4 C 0 km/h
19 22-02-2011 03:42:13 -4.2 C 1.95 g/m*3 -4.2 C 0 km/h
20 22-02-2011 03:54:13 -4.4 C 1.96 g/m*3 -4.4 C 0 km/h
21 22-02-2011 04:06:13 -4.5 C 1.94 g/m*3 -4.5 C 0 km/h
22 22-02-2011 04:18:13 -4.7 C 1.91 g/m*3 -4.7 C 0 km/h
23 22-02-2011 04:30:13 -4.9 C 1.89 g/m*3 -4.9 C 0 km/h
24 22-02-2011 04:42:13 -5.2 C 1.88 g/m*3 -5.2 C 0 km/h
25 22-02-2011 04:54:13 -5.5 C 1.84 g/m*3 -5.5 C 0 km/h
Sensor: Nr:Datum:Temp:Abs-Feuchte:Windchill:Wind:
Aussen-T/F 26 22-02-2011 05:06:13 -5.6 C 1.89 g/m*3 -5.6 C 0 km/h
27 22-02-2011 05:18:13 -5.7 C 1.88 g/m*3 -5.7 C 0 km/h
28 22-02-2011 05:30:14 -6 C 1.84 g/m*3 -6 C 0 km/h
29 22-02-2011 05:42:14 -6.3 C 1.86 g/m*3 -6.3 C 0 km/h
30 22-02-2011 05:54:14 -6.7 C 1.81 g/m*3 -6.7 C 0 km/h
31 22-02-2011 06:06:14 -7.2 C 1.8 g/m*3 -7.2 C 0 km/h
32 22-02-2011 06:18:14 -7.9 C 1.76 g/m*3 -7.9 C 0 km/h
33 22-02-2011 06:30:14 -8.1 C 1.82 g/m*3 -8.1 C 0 km/h
34 22-02-2011 06:42:14 -8 C 1.86 g/m*3 -8 C 0 km/h
35 22-02-2011 06:54:14 -7.7 C 1.93 g/m*3 -7.7 C 0 km/h
36 22-02-2011 07:06:14 -8 C 1.86 g/m*3 -8 C 0 km/h
37 22-02-2011 07:18:03 -8.2 C 1.86 g/m*3 -8.2 C 0 km/h
38 22-02-2011 07:30:03 -8.7 C 1.79 g/m*3 -8.7 C 0 km/h
39 22-02-2011 07:42:03 -8.4 C 1.88 g/m*3 -8.4 C 0 km/h
40 22-02-2011 07:54:02 -8.3 C 1.9 g/m*3 -8.3 C 0 km/h
41 22-02-2011 08:06:02 -8.1 C 1.93 g/m*3 -8.1 C 0 km/h
42 22-02-2011 08:18:02 -7.7 C 1.96 g/m*3 -7.7 C 0 km/h
43 22-02-2011 08:30:02 -7.8 C 1.86 g/m*3 -7.8 C 0 km/h
44 22-02-2011 08:42:02 -7.5 C 1.87 g/m*3 -7.5 C 0 km/h
45 22-02-2011 08:54:01 -7.5 C 1.84 g/m*3 -7.5 C 0 km/h
46 22-02-2011 09:06:01 -7.3 C 1.87 g/m*3 -7.3 C 0 km/h
47 22-02-2011 09:18:02 -6.9 C 1.9 g/m*3 -6.9 C 0 km/h
48 22-02-2011 09:30:02 -6.9 C 1.87 g/m*3 -6.9 C 0 km/h
49 22-02-2011 09:42:01 -6.9 C 1.84 g/m*3 -6.9 C 0 km/h
50 22-02-2011 09:54:02 -6.8 C 1.82 g/m*3 -6.8 C 0 km/h
Sensor: Nr:Datum:Temp:Abs-Feuchte:Windchill:Wind:
Aussen-T/F 51 22-02-2011 10:06:02 -6.5 C 1.83 g/m*3 -6.5 C 0 km/h
52 22-02-2011 10:18:02 -6.1 C 1.86 g/m*3 -6.1 C 0 km/h
53 22-02-2011 10:30:02 -5.7 C 1.88 g/m*3 -5.7 C 0 km/h
54 22-02-2011 10:42:03 -5.3 C 1.9 g/m*3 -5.3 C 0 km/h
55 22-02-2011 10:54:01 -5 C 1.87 g/m*3 -5 C 0 km/h
56 22-02-2011 11:06:02 -4.5 C 1.87 g/m*3 -4.5 C 0 km/h
57 22-02-2011 11:18:01 -3.6 C 1.88 g/m*3 -3.6 C 0 km/h
58 22-02-2011 11:30:01 -3.7 C 1.83 g/m*3 -3.7 C 0 km/h
59 22-02-2011 11:42:01 -3.1 C 1.83 g/m*3 -3.1 C 0 km/h
60 22-02-2011 11:54:01 -2.8 C 1.79 g/m*3 -2.8 C 0 km/h
61 22-02-2011 12:06:01 -1.9 C 1.87 g/m*3 -1.9 C 0 km/h
62 22-02-2011 12:18:02 -1 C 1.85 g/m*3 -1 C 0 km/h
63 22-02-2011 12:30:02 -1.1 C 1.84 g/m*3 -1.1 C 0 km/h
64 22-02-2011 12:42:01 0.3 C 1.98 g/m*3 0.3 C 0 km/h
65 22-02-2011 12:54:03 3.5 C 1.91 g/m*3 3.5 C 0 km/h
66 22-02-2011 13:06:02 3.1 C 1.56 g/m*3 3.1 C 0 km/h
67 22-02-2011 13:18:02 3.8 C 1.63 g/m*3 3.8 C 0 km/h
68 22-02-2011 13:30:02 2.3 C 1.3 g/m*3 2.3 C 0 km/h
69 22-02-2011 13:42:02 0.7 C 1.63 g/m*3 0.7 C 0 km/h
70 22-02-2011 13:54:02 -0.2 C 1.77 g/m*3 -0.2 C 0 km/h
71 22-02-2011 14:06:02 0.4 C 1.89 g/m*3 0.4 C 0 km/h
72 22-02-2011 14:18:02 1.3 C 1.85 g/m*3 1.3 C 0 km/h
73 22-02-2011 14:30:02 1.3 C 1.85 g/m*3 1.3 C 0 km/h
74 22-02-2011 14:42:02 2.9 C 1.89 g/m*3 2.9 C 0 km/h
75 22-02-2011 14:54:02 2.2 C 1.69 g/m*3 2.2 C 0 km/h
Sensor: Nr:Datum:Temp:Abs-Feuchte:Windchill:Wind:
Aussen-T/F 76 22-02-2011 15:06:02 3 C 1.78 g/m*3 3 C 0 km/h
77 22-02-2011 15:18:01 4.1 C 1.73 g/m*3 4.1 C 0 km/h
78 22-02-2011 15:30:01 3.5 C 1.54 g/m*3 3.5 C 0 km/h
79 22-02-2011 15:42:02 3 C 1.49 g/m*3 3 C 0 km/h
80 22-02-2011 15:54:02 3.8 C 1.57 g/m*3 3.8 C 0 km/h
81 22-02-2011 16:06:02 4.4 C 1.31 g/m*3 4.4 C 0 km/h
82 22-02-2011 16:18:01 6.3 C 1.48 g/m*3 6.3 C 0 km/h
83 22-02-2011 16:30:01 6.6 C 1.51 g/m*3 6.6 C 0 km/h
84 22-02-2011 16:42:02 5.5 C 1.4 g/m*3 5.5 C 0 km/h
85 22-02-2011 16:54:02 6.7 C 1.52 g/m*3 6.7 C 0 km/h
86 22-02-2011 17:06:02 5.2 C 1.38 g/m*3 5.2 C 0 km/h
87 22-02-2011 17:18:01 4 C 1.27 g/m*3 4 C 0 km/h
88 22-02-2011 17:30:01 1 C 1.87 g/m*3 1 C 0 km/h
89 22-02-2011 17:42:02 -1.2 C 1.87 g/m*3 -1.2 C 0 km/h
90 22-02-2011 17:54:02 -2.5 C 1.87 g/m*3 -2.5 C 0 km/h
91 22-02-2011 18:06:02 -3.3 C 1.92 g/m*3 -3.3 C 0 km/h
92 22-02-2011 18:18:02 -3.8 C 2.04 g/m*3 -3.8 C 0 km/h
93 22-02-2011 18:30:02 -3.8 C 2.12 g/m*3 -3.8 C 0 km/h
94 22-02-2011 18:42:02 -4 C 2.12 g/m*3 -4 C 0 km/h
95 22-02-2011 18:54:02 -3.9 C 2.21 g/m*3 -3.9 C 0 km/h
96 22-02-2011 19:06:01 -4.4 C 2.1 g/m*3 -4.4 C 0 km/h
97 22-02-2011 19:18:02 -4.5 C 2.08 g/m*3 -4.5 C 0 km/h
98 22-02-2011 19:30:03 -4.2 C 2.16 g/m*3 -4.2 C 0 km/h
99 22-02-2011 19:42:01 -4.7 C 2.12 g/m*3 -4.7 C 0 km/h
100 22-02-2011 19:54:02 -4.8 C 2.11 g/m*3 -4.8 C 0 km/h
Sensor: Nr:Datum:Temp:Abs-Feuchte:Windchill:Wind:
Aussen-T/F 101 22-02-2011 20:06:03 -4.8 C 2.04 g/m*3 -4.8 C 0 km/h
102 22-02-2011 20:18:01 -5.3 C 2 g/m*3 -5.3 C 0 km/h
103 22-02-2011 20:30:01 -5.4 C 2.05 g/m*3 -5.4 C 0 km/h
104 22-02-2011 20:42:01 -5.2 C 2.15 g/m*3 -5.2 C 0 km/h
105 22-02-2011 20:54:01 -5 C 2.25 g/m*3 -5 C 0 km/h
106 22-02-2011 21:06:01 -5.2 C 2.15 g/m*3 -5.2 C 0 km/h
107 22-02-2011 21:18:02 -5.1 C 2.13 g/m*3 -5.1 C 0 km/h
108 22-02-2011 21:30:02 -5.3 C 2.07 g/m*3 -5.3 C 0 km/h
109 22-02-2011 21:42:01 -5.5 C 2 g/m*3 -5.5 C 0 km/h
110 22-02-2011 21:54:02 -5.7 C 2.01 g/m*3 -5.7 C 0 km/h
111 22-02-2011 22:06:01 -5.5 C 2.04 g/m*3 -5.5 C 0 km/h
112 22-02-2011 22:19:03 -5.4 C 2.05 g/m*3 -5.4 C 0 km/h
113 22-02-2011 22:31:03 -5.6 C 2.05 g/m*3 -5.6 C 0 km/h
114 22-02-2011 22:43:03 -5.5 C 2.1 g/m*3 -5.5 C 0 km/h
115 22-02-2011 22:55:03 -5.8 C 1.96 g/m*3 -5.8 C 0 km/h
116 22-02-2011 23:07:03 -5.9 C 1.95 g/m*3 -5.9 C 0 km/h
117 22-02-2011 23:19:04 -6 C 1.93 g/m*3 -6 C 0 km/h
118 22-02-2011 23:31:04 -6.1 C 1.89 g/m*3 -6.1 C 0 km/h
119 22-02-2011 23:43:04 -6.3 C 1.83 g/m*3 -6.3 C 0 km/h
120 22-02-2011 23:55:04 -6.2 C 1.94 g/m*3 -6.2 C 0 km/h
121 23-02-2011 00:07:04 -6.4 C 1.94 g/m*3 -6.4 C 0 km/h
122 23-02-2011 00:19:04 -6.4 C 1.94 g/m*3 -6.4 C 0 km/h
123 23-02-2011 00:31:04 -6.8 C 1.88 g/m*3 -6.8 C 0 km/h
124 23-02-2011 00:43:04 -7 C 1.88 g/m*3 -7 C 0 km/h
125 23-02-2011 00:55:04 -6.9 C 1.9 g/m*3 -6.9 C 0 km/h
Sensor: Nr:Datum:Temp:Abs-Feuchte:Windchill:Wind:
Aussen-T/F 126 23-02-2011 01:07:04 -6.9 C 1.93 g/m*3 -6.9 C 0 km/h
127 23-02-2011 01:19:04 -7.3 C 1.87 g/m*3 -7.3 C 0 km/h
128 23-02-2011 01:31:04 -7.4 C 1.86 g/m*3 -7.4 C 0 km/h
129 23-02-2011 01:43:04 -7 C 1.94 g/m*3 -7 C 0 km/h
130 23-02-2011 01:55:04 -7.4 C 1.86 g/m*3 -7.4 C 0 km/h
131 23-02-2011 02:07:04 -7.8 C 1.8 g/m*3 -7.8 C 0 km/h
132 23-02-2011 02:19:04 -7.8 C 1.8 g/m*3 -7.8 C 0 km/h
133 23-02-2011 02:31:04 -7.9 C 1.79 g/m*3 -7.9 C 0 km/h
134 23-02-2011 02:43:04 -8.1 C 1.79 g/m*3 -8.1 C 0 km/h
135 23-02-2011 02:55:04 -7.9 C 1.85 g/m*3 -7.9 C 0 km/h
136 23-02-2011 03:07:04 -7.9 C 1.87 g/m*3 -7.9 C 0 km/h
137 23-02-2011 03:19:05 -7.3 C 1.96 g/m*3 -7.3 C 0 km/h
138 23-02-2011 03:31:05 -8.1 C 1.82 g/m*3 -8.1 C 0 km/h
139 23-02-2011 03:43:05 -8.6 C 1.78 g/m*3 -8.6 C 0 km/h
140 23-02-2011 03:55:05 -8.8 C 1.78 g/m*3 -8.8 C 0 km/h
141 23-02-2011 04:07:05 -8.6 C 1.83 g/m*3 -8.6 C 0 km/h
142 23-02-2011 04:19:05 -8.5 C 1.84 g/m*3 -8.5 C 0 km/h
143 23-02-2011 04:31:05 -8.7 C 1.82 g/m*3 -8.7 C 0 km/h
144 23-02-2011 04:43:05 -8.9 C 1.82 g/m*3 -8.9 C 0 km/h
145 23-02-2011 04:55:05 -9.1 C 1.79 g/m*3 -9.1 C 0 km/h
146 23-02-2011 05:07:05 -8.9 C 1.84 g/m*3 -8.9 C 0 km/h
147 23-02-2011 05:19:05 -8.8 C 1.88 g/m*3 -8.8 C 0 km/h
148 23-02-2011 05:31:05 -8.7 C 1.9 g/m*3 -8.7 C 0 km/h
149 23-02-2011 05:43:05 -8.7 C 1.9 g/m*3 -8.7 C 0 km/h
150 23-02-2011 05:55:05 -8.9 C 1.84 g/m*3 -8.9 C 0 km/h
Sensor: Nr:Datum:Temp:Abs-Feuchte:Windchill:Wind:
Aussen-T/F 151 23-02-2011 06:07:05 -9.1 C 1.81 g/m*3 -9.1 C 0 km/h
152 23-02-2011 06:19:05 -9.4 C 1.77 g/m*3 -9.4 C 0 km/h
153 23-02-2011 06:31:05 -9.5 C 1.76 g/m*3 -9.5 C 0 km/h
154 23-02-2011 06:43:05 -9.4 C 1.77 g/m*3 -9.4 C 0 km/h
155 23-02-2011 06:55:05 -9.4 C 1.77 g/m*3 -9.4 C 0 km/h
156 23-02-2011 07:07:05 -9.5 C 1.76 g/m*3 -9.5 C 0 km/h
157 23-02-2011 07:19:02 -9.1 C 1.84 g/m*3 -9.1 C 0 km/h
158 23-02-2011 07:31:02 -9.2 C 1.83 g/m*3 -9.2 C 0 km/h
159 23-02-2011 07:43:02 -9.3 C 1.81 g/m*3 -9.3 C 0 km/h
160 23-02-2011 07:55:02 -8.8 C 1.91 g/m*3 -8.8 C 0 km/h
161 23-02-2011 08:07:02 -8.3 C 2.01 g/m*3 -8.3 C 0 km/h
162 23-02-2011 08:19:01 -7.9 C 2.07 g/m*3 -7.9 C 0 km/h
163 23-02-2011 08:31:02 -7.6 C 2.11 g/m*3 -7.6 C 0 km/h
164 23-02-2011 08:43:02 -7.2 C 2.18 g/m*3 -7.2 C 0 km/h
165 23-02-2011 08:55:02 -6.5 C 2.26 g/m*3 -6.5 C 0 km/h
166 23-02-2011 09:07:02 -5.8 C 2.35 g/m*3 -5.8 C 0 km/h
167 23-02-2011 09:19:01 -5.3 C 2.33 g/m*3 -5.3 C 0 km/h
168 23-02-2011 09:31:02 -4.8 C 2.31 g/m*3 -4.8 C 0 km/h
169 23-02-2011 09:43:02 -4.5 C 2.29 g/m*3 -4.5 C 0 km/h
170 23-02-2011 09:55:02 -3.8 C 2.26 g/m*3 -3.8 C 0 km/h
171 23-02-2011 10:07:02 -3.3 C 2.35 g/m*3 -3.3 C 0 km/h
172 23-02-2011 10:19:02 -2.7 C 2.37 g/m*3 -2.7 C 0 km/h
173 23-02-2011 10:31:02 -2.3 C 2.31 g/m*3 -2.3 C 0 km/h
174 23-02-2011 10:43:02 -1.8 C 2.27 g/m*3 -1.8 C 0 km/h
175 23-02-2011 10:55:02 -1.3 C 2.17 g/m*3 -1.3 C 0 km/h
Sensor: Nr:Datum:Temp:Abs-Feuchte:Windchill:Wind:
Aussen-T/F 176 23-02-2011 11:07:01 -0.9 C 2.09 g/m*3 -0.9 C 0 km/h
177 23-02-2011 11:19:01 -0.5 C 2.06 g/m*3 -0.5 C 0 km/h
178 23-02-2011 11:31:02 -0.6 C 1.91 g/m*3 -0.6 C 0 km/h
179 23-02-2011 11:43:02 0.3 C 1.88 g/m*3 0.3 C 0 km/h
180 23-02-2011 11:55:02 0.2 C 1.92 g/m*3 0.2 C 0 km/h
181 23-02-2011 12:07:02 1.1 C 1.93 g/m*3 1.1 C 0 km/h
182 23-02-2011 12:19:02 1.2 C 1.68 g/m*3 1.2 C 0 km/h
183 23-02-2011 12:31:02 1.3 C 1.54 g/m*3 1.3 C 0 km/h
184 23-02-2011 12:43:02 1.8 C 1.26 g/m*3 1.8 C 0 km/h
185 23-02-2011 12:55:02 3.2 C 1.21 g/m*3 3.2 C 0 km/h
186 23-02-2011 13:07:02 4.4 C 1.31 g/m*3 4.4 C 0 km/h
187 23-02-2011 13:19:02 3.1 C 1.2 g/m*3 3.1 C 0 km/h
188 23-02-2011 13:31:02 3.8 C 1.25 g/m*3 3.8 C 0 km/h
189 23-02-2011 13:43:02 3.3 C 1.21 g/m*3 3.3 C 0 km/h
190 23-02-2011 13:55:02 3.7 C 1.25 g/m*3 3.7 C 0 km/h
191 23-02-2011 14:07:02 3.9 C 1.26 g/m*3 3.9 C 0 km/h
192 23-02-2011 14:19:03 4.2 C 1.29 g/m*3 4.2 C 0 km/h
193 23-02-2011 14:31:02 3.9 C 1.26 g/m*3 3.9 C 0 km/h
194 23-02-2011 14:43:02 3.8 C 1.25 g/m*3 3.8 C 0 km/h
195 23-02-2011 14:55:02 4 C 1.27 g/m*3 4 C 0 km/h
196 23-02-2011 15:07:02 4.1 C 1.28 g/m*3 4.1 C 0 km/h
197 23-02-2011 15:19:02 3.7 C 1.25 g/m*3 3.7 C 0 km/h
198 23-02-2011 15:31:02 3.5 C 1.23 g/m*3 3.5 C 0 km/h
199 23-02-2011 15:43:02 3.7 C 1.25 g/m*3 3.7 C 0 km/h
200 23-02-2011 15:55:02 3.7 C 1.25 g/m*3 3.7 C 0 km/h
Sensor: Nr:Datum:Temp:Abs-Feuchte:Windchill:Wind:
Aussen-T/F 201 23-02-2011 16:07:01 3.2 C 1.21 g/m*3 3.2 C 0 km/h
202 23-02-2011 16:19:02 3 C 1.19 g/m*3 3 C 0 km/h
203 23-02-2011 16:31:02 3.1 C 1.2 g/m*3 3.1 C 0 km/h
204 23-02-2011 16:43:02 2.8 C 1.17 g/m*3 2.8 C 0 km/h
205 23-02-2011 16:55:01 2.9 C 1.18 g/m*3 2.9 C 0 km/h
206 23-02-2011 17:07:02 2.3 C 1.13 g/m*3 2.3 C 0 km/h
207 23-02-2011 17:19:01 1.6 C 1.62 g/m*3 1.6 C 0 km/h
208 23-02-2011 17:31:02 1.4 C 1.6 g/m*3 1.4 C 0 km/h
209 23-02-2011 17:43:02 0.8 C 1.79 g/m*3 0.8 C 0 km/h
210 23-02-2011 17:55:02 0.2 C 2.01 g/m*3 0.2 C 0 km/h
211 23-02-2011 18:07:02 -0.1 C 2.17 g/m*3 -0.1 C 0 km/h
212 23-02-2011 18:19:01 -0.2 C 2.15 g/m*3 -0.2 C 0 km/h
213 23-02-2011 18:31:02 -0.3 C 2.14 g/m*3 -0.3 C 0 km/h
214 23-02-2011 18:43:02 -0.3 C 2.18 g/m*3 -0.3 C 0 km/h
215 23-02-2011 18:55:02 -0.6 C 2.23 g/m*3 -0.6 C 0 km/h
216 23-02-2011 19:07:02 0.1 C 2.2 g/m*3 0.1 C 0 km/h
217 23-02-2011 19:19:02 0.1 C 2.05 g/m*3 0.1 C 0 km/h
218 23-02-2011 19:31:02 0.4 C 2.09 g/m*3 0.4 C 0 km/h
219 23-02-2011 19:43:02 0.3 C 2.08 g/m*3 0.3 C 0 km/h
220 23-02-2011 19:55:02 0.4 C 2.04 g/m*3 0.4 C 0 km/h
221 23-02-2011 20:07:02 0.3 C 2.03 g/m*3 0.3 C 0 km/h
222 23-02-2011 20:19:02 0.2 C 2.01 g/m*3 0.2 C 0 km/h
223 23-02-2011 20:31:02 0.1 C 2.1 g/m*3 0.1 C 0 km/h
224 23-02-2011 20:43:02 -0.3 C 2.14 g/m*3 -0.3 C 0 km/h
225 23-02-2011 20:55:02 0.1 C 2.2 g/m*3 0.1 C 0 km/h
Sensor: Nr:Datum:Temp:Abs-Feuchte:Windchill:Wind:
Aussen-T/F 226 23-02-2011 21:07:02 0.5 C 2.11 g/m*3 0.5 C 0 km/h
227 23-02-2011 21:19:02 0.1 C 2.2 g/m*3 0.1 C 0 km/h
228 23-02-2011 21:31:02 -0.2 C 2.25 g/m*3 -0.2 C 0 km/h
229 23-02-2011 21:43:02 -0.3 C 2.33 g/m*3 -0.3 C 0 km/h
230 23-02-2011 21:55:02 -0.4 C 2.36 g/m*3 -0.4 C 0 km/h
231 23-02-2011 22:07:02 -0.1 C 2.36 g/m*3 -0.1 C 0 km/h
232 23-02-2011 22:19:02 0 C 2.28 g/m*3 0 C 0 km/h
233 23-02-2011 22:31:02 -0.1 C 2.31 g/m*3 -0.1 C 0 km/h
234 23-02-2011 22:43:02 -0.1 C 2.36 g/m*3 -0.1 C 0 km/h
235 23-02-2011 22:55:02 -0.1 C 2.31 g/m*3 -0.1 C 0 km/h
236 23-02-2011 23:07:02 -0.2 C 2.48 g/m*3 -0.2 C 0 km/h
237 23-02-2011 23:19:02 -0.3 C 2.37 g/m*3 -0.3 C 0 km/h
238 23-02-2011 23:31:02 -0.2 C 2.58 g/m*3 -0.2 C 0 km/h
239 23-02-2011 23:43:02 -0.3 C 2.56 g/m*3 -0.3 C 0 km/h
240 23-02-2011 23:55:01 -0.3 C 2.56 g/m*3 -0.3 C 0 km/h
241 24-02-2011 00:07:01 -0.3 C 2.61 g/m*3 -0.3 C 0 km/h
242 24-02-2011 00:19:02 -0.4 C 2.54 g/m*3 -0.4 C 0 km/h
243 24-02-2011 00:31:01 -0.4 C 2.59 g/m*3 -0.4 C 0 km/h
244 24-02-2011 00:43:01 -0.5 C 2.57 g/m*3 -0.5 C 0 km/h
245 24-02-2011 00:55:03 -0.6 C 2.6 g/m*3 -0.6 C 0 km/h
246 24-02-2011 01:07:02 -0.7 C 2.63 g/m*3 -0.7 C 0 km/h
247 24-02-2011 01:19:02 -0.9 C 2.64 g/m*3 -0.9 C 0 km/h
248 24-02-2011 01:31:03 -0.9 C 2.69 g/m*3 -0.9 C 0 km/h
249 24-02-2011 01:43:03 -0.6 C 2.74 g/m*3 -0.6 C 0 km/h
250 24-02-2011 01:55:02 -0.6 C 2.7 g/m*3 -0.6 C 0 km/h
Sensor: Nr:Datum:Temp:Abs-Feuchte:Windchill:Wind:
Aussen-T/F 251 24-02-2011 02:07:01 -0.6 C 2.7 g/m*3 -0.6 C 0 km/h
252 24-02-2011 02:19:02 -0.6 C 2.7 g/m*3 -0.6 C 0 km/h
253 24-02-2011 02:31:02 -0.5 C 2.62 g/m*3 -0.5 C 0 km/h
254 24-02-2011 02:43:02 -0.4 C 2.45 g/m*3 -0.4 C 0 km/h
255 24-02-2011 02:56:03 -0.3 C 2.56 g/m*3 -0.3 C 0 km/h
256 24-02-2011 03:08:03 -0.2 C 2.63 g/m*3 -0.2 C 0 km/h
257 24-02-2011 03:20:04 -0.2 C 2.72 g/m*3 -0.2 C 0 km/h
258 24-02-2011 03:32:02 -0.2 C 2.72 g/m*3 -0.2 C 0 km/h
259 24-02-2011 03:44:02 0 C 2.76 g/m*3 0 C 0 km/h
260 24-02-2011 03:56:03 0 C 2.76 g/m*3 0 C 0 km/h
261 24-02-2011 04:08:01 0.1 C 2.83 g/m*3 0.1 C 0 km/h
262 24-02-2011 04:20:02 0.4 C 2.69 g/m*3 0.4 C 0 km/h
263 24-02-2011 04:32:02 0.4 C 2.74 g/m*3 0.4 C 0 km/h
264 24-02-2011 04:44:02 0 C 3 g/m*3 0 C 0 km/h
265 24-02-2011 04:56:01 -0.3 C 3.13 g/m*3 -0.3 C 0 km/h
266 24-02-2011 05:08:02 -0.6 C 3.25 g/m*3 -0.6 C 0 km/h
267 24-02-2011 05:20:01 -0.8 C 3.25 g/m*3 -0.8 C 0 km/h
268 24-02-2011 05:32:01 -0.8 C 3.44 g/m*3 -0.8 C 0 km/h
269 24-02-2011 05:44:02 -1 C 3.48 g/m*3 -1 C 0 km/h
270 24-02-2011 05:56:01 -1 C 3.57 g/m*3 -1 C 0 km/h
271 24-02-2011 06:08:02 -0.9 C 3.64 g/m*3 -0.9 C 0 km/h
272 24-02-2011 06:20:01 -0.9 C 3.6 g/m*3 -0.9 C 0 km/h
273 24-02-2011 06:32:02 -0.9 C 3.55 g/m*3 -0.9 C 0 km/h
274 24-02-2011 06:44:02 -0.9 C 3.55 g/m*3 -0.9 C 0 km/h
275 24-02-2011 06:56:01 -0.8 C 3.58 g/m*3 -0.8 C 0 km/h
Sensor: Nr:Datum:Temp:Abs-Feuchte:Windchill:Wind:
Aussen-T/F 276 24-02-2011 07:08:02 -0.8 C 3.62 g/m*3 -0.8 C 0 km/h
277 24-02-2011 07:20:02 -0.8 C 3.62 g/m*3 -0.8 C 0 km/h
278 24-02-2011 07:32:03 -0.8 C 3.67 g/m*3 -0.8 C 0 km/h
279 24-02-2011 07:44:03 -0.7 C 3.69 g/m*3 -0.7 C 0 km/h
280 24-02-2011 07:56:02 -0.7 C 3.69 g/m*3 -0.7 C 0 km/h
281 24-02-2011 08:08:02 -0.6 C 3.76 g/m*3 -0.6 C 0 km/h
282 24-02-2011 08:20:02 -0.6 C 3.81 g/m*3 -0.6 C 0 km/h
283 24-02-2011 08:32:02 -0.5 C 3.84 g/m*3 -0.5 C 0 km/h
284 24-02-2011 08:44:02 -0.3 C 3.94 g/m*3 -0.3 C 0 km/h
285 24-02-2011 08:56:02 0 C 4.02 g/m*3 0 C 0 km/h
286 24-02-2011 09:08:03 0 C 3.97 g/m*3 0 C 0 km/h
287 24-02-2011 09:20:02 0.1 C 4 g/m*3 0.1 C 0 km/h
288 24-02-2011 09:32:03 0.1 C 4 g/m*3 0.1 C 0 km/h
289 24-02-2011 09:44:03 0.1 C 4 g/m*3 0.1 C 0 km/h
290 24-02-2011 09:56:02 0.3 C 4.06 g/m*3 0.3 C 0 km/h
291 24-02-2011 10:08:02 0.4 C 4.08 g/m*3 0.4 C 0 km/h
292 24-02-2011 10:20:02 0.6 C 4.14 g/m*3 0.6 C 0 km/h
293 24-02-2011 10:32:02 0.7 C 4.17 g/m*3 0.7 C 0 km/h
294 24-02-2011 10:44:02 1 C 4.15 g/m*3 1 C 0 km/h
295 24-02-2011 10:56:02 1.1 C 4.18 g/m*3 1.1 C 0 km/h
296 24-02-2011 11:08:02 1.1 C 4.13 g/m*3 1.1 C 0 km/h
297 24-02-2011 11:20:03 1.5 C 4.24 g/m*3 1.5 C 0 km/h
298 24-02-2011 11:32:02 1.7 C 4.19 g/m*3 1.7 C 0 km/h
299 24-02-2011 11:44:02 1.8 C 4.22 g/m*3 1.8 C 0 km/h
300 24-02-2011 11:56:03 1.8 C 4.17 g/m*3 1.8 C 0 km/h
Sensor: Nr:Datum:Temp:Abs-Feuchte:Windchill:Wind:
Aussen-T/F 301 24-02-2011 12:08:02 1.9 C 4.19 g/m*3 1.9 C 0 km/h
302 24-02-2011 12:20:02 2.5 C 4.31 g/m*3 2.5 C 0 km/h
303 24-02-2011 12:32:02 2.5 C 4.31 g/m*3 2.5 C 0 km/h
304 24-02-2011 12:44:02 2.9 C 4.37 g/m*3 2.9 C 0 km/h
305 24-02-2011 12:56:02 3.5 C 4.24 g/m*3 3.5 C 0 km/h
306 24-02-2011 13:08:02 3.4 C 4.15 g/m*3 3.4 C 0 km/h
307 24-02-2011 13:20:02 3.1 C 4.07 g/m*3 3.1 C 0 km/h
308 24-02-2011 13:32:02 3.9 C 4.36 g/m*3 3.9 C 0 km/h
309 24-02-2011 13:44:02 3.4 C 4.15 g/m*3 3.4 C 0 km/h
310 24-02-2011 13:56:02 3.1 C 4.13 g/m*3 3.1 C 0 km/h
311 24-02-2011 14:08:02 2.6 C 4.17 g/m*3 2.6 C 0 km/h
312 24-02-2011 14:20:01 2.3 C 4.2 g/m*3 2.3 C 0 km/h
313 24-02-2011 14:32:02 2.5 C 4.37 g/m*3 2.5 C 0 km/h
314 24-02-2011 14:44:02 2.7 C 4.37 g/m*3 2.7 C 0 km/h
315 24-02-2011 14:56:02 3 C 4.4 g/m*3 3 C 0 km/h
316 24-02-2011 15:08:02 3.4 C 4.46 g/m*3 3.4 C 0 km/h
317 24-02-2011 15:20:02 3.4 C 4.34 g/m*3 3.4 C 0 km/h
318 24-02-2011 15:32:02 3 C 4.22 g/m*3 3 C 0 km/h
319 24-02-2011 15:44:02 3.1 C 4.31 g/m*3 3.1 C 0 km/h
320 24-02-2011 15:56:01 3 C 4.34 g/m*3 3 C 0 km/h
321 24-02-2011 16:08:01 2.8 C 4.34 g/m*3 2.8 C 0 km/h
322 24-02-2011 16:20:02 2.7 C 4.31 g/m*3 2.7 C 0 km/h
323 24-02-2011 16:32:01 2.6 C 4.34 g/m*3 2.6 C 0 km/h
324 24-02-2011 16:44:01 2.3 C 4.31 g/m*3 2.3 C 0 km/h
325 24-02-2011 16:56:02 2.2 C 4.39 g/m*3 2.2 C 0 km/h
Sensor: Nr:Datum:Temp:Abs-Feuchte:Windchill:Wind:
Aussen-T/F 326 24-02-2011 17:08:02 2 C 4.39 g/m*3 2 C 0 km/h
327 24-02-2011 17:20:03 1.8 C 4.44 g/m*3 1.8 C 0 km/h
328 24-02-2011 17:32:02 1.5 C 4.4 g/m*3 1.5 C 0 km/h
329 24-02-2011 17:44:02 1.4 C 4.48 g/m*3 1.4 C 0 km/h
330 24-02-2011 17:56:02 1.5 C 4.51 g/m*3 1.5 C 0 km/h
331 24-02-2011 18:08:02 1.5 C 4.57 g/m*3 1.5 C 0 km/h
332 24-02-2011 18:20:02 1.3 C 4.5 g/m*3 1.3 C 0 km/h
333 24-02-2011 18:32:03 1.2 C 4.47 g/m*3 1.2 C 0 km/h
334 24-02-2011 18:44:03 1.2 C 4.53 g/m*3 1.2 C 0 km/h
335 24-02-2011 18:56:02 1.2 C 4.53 g/m*3 1.2 C 0 km/h
336 24-02-2011 19:08:01 1.2 C 4.58 g/m*3 1.2 C 0 km/h
337 24-02-2011 19:20:02 1.2 C 4.58 g/m*3 1.2 C 0 km/h
338 24-02-2011 19:32:02 1.3 C 4.61 g/m*3 1.3 C 0 km/h
339 24-02-2011 19:44:02 1.3 C 4.61 g/m*3 1.3 C 0 km/h
340 24-02-2011 19:56:01 1.3 C 4.66 g/m*3 1.3 C 0 km/h
341 24-02-2011 20:08:02 1.3 C 4.66 g/m*3 1.3 C 0 km/h
342 24-02-2011 20:20:01 1.3 C 4.66 g/m*3 1.3 C 0 km/h
343 24-02-2011 20:32:02 1.2 C 4.63 g/m*3 1.2 C 0 km/h
344 24-02-2011 20:44:02 1.3 C 4.66 g/m*3 1.3 C 0 km/h
345 24-02-2011 20:56:02 1.3 C 4.66 g/m*3 1.3 C 0 km/h
346 24-02-2011 21:08:02 1.3 C 4.66 g/m*3 1.3 C 0 km/h
347 24-02-2011 21:20:01 1.3 C 4.66 g/m*3 1.3 C 0 km/h
348 24-02-2011 21:33:03 1.3 C 4.72 g/m*3 1.3 C 0 km/h
349 24-02-2011 21:45:03 1.3 C 4.72 g/m*3 1.3 C 0 km/h
350 24-02-2011 21:57:03 1.4 C 4.75 g/m*3 1.4 C 0 km/h
Sensor: Nr:Datum:Temp:Abs-Feuchte:Windchill:Wind:
Aussen-T/F 351 24-02-2011 22:09:03 1.4 C 4.75 g/m*3 1.4 C 0 km/h
352 24-02-2011 22:21:03 1.4 C 4.75 g/m*3 1.4 C 0 km/h
353 24-02-2011 22:33:03 1.4 C 4.75 g/m*3 1.4 C 0 km/h
354 24-02-2011 22:45:03 1.4 C 4.75 g/m*3 1.4 C 0 km/h
355 24-02-2011 22:57:03 1.4 C 4.75 g/m*3 1.4 C 0 km/h
356 24-02-2011 23:09:03 1.4 C 4.75 g/m*3 1.4 C 0 km/h
357 24-02-2011 23:21:03 1.4 C 4.75 g/m*3 1.4 C 0 km/h
358 24-02-2011 23:33:03 1.4 C 4.75 g/m*3 1.4 C 0 km/h
359 24-02-2011 23:45:03 1.4 C 4.75 g/m*3 1.4 C 0 km/h
360 24-02-2011 23:57:03 1.4 C 4.75 g/m*3 1.4 C 0 km/h
361 25-02-2011 00:09:03 1.4 C 4.75 g/m*3 1.4 C 0 km/h
362 25-02-2011 00:21:03 1.4 C 4.75 g/m*3 1.4 C 0 km/h
363 25-02-2011 00:33:04 1.5 C 4.78 g/m*3 1.5 C 0 km/h
364 25-02-2011 00:45:04 1.5 C 4.78 g/m*3 1.5 C 0 km/h
365 25-02-2011 00:57:04 1.4 C 4.75 g/m*3 1.4 C 0 km/h
366 25-02-2011 01:09:04 1.4 C 4.75 g/m*3 1.4 C 0 km/h
367 25-02-2011 01:21:04 1.5 C 4.78 g/m*3 1.5 C 0 km/h
368 25-02-2011 01:33:04 1.4 C 4.8 g/m*3 1.4 C 0 km/h
369 25-02-2011 01:45:04 1.4 C 4.8 g/m*3 1.4 C 0 km/h
370 25-02-2011 01:57:04 1.5 C 4.83 g/m*3 1.5 C 0 km/h
371 25-02-2011 02:09:04 1.4 C 4.8 g/m*3 1.4 C 0 km/h
372 25-02-2011 02:21:04 1.4 C 4.8 g/m*3 1.4 C 0 km/h
373 25-02-2011 02:33:04 1.4 C 4.8 g/m*3 1.4 C 0 km/h
374 25-02-2011 02:45:04 1.4 C 4.8 g/m*3 1.4 C 0 km/h
375 25-02-2011 02:57:04 1.5 C 4.83 g/m*3 1.5 C 0 km/h
Sensor: Nr:Datum:Temp:Abs-Feuchte:Windchill:Wind:
Aussen-T/F 376 25-02-2011 03:09:04 1.5 C 4.83 g/m*3 1.5 C 0 km/h
377 25-02-2011 03:21:04 1.5 C 4.83 g/m*3 1.5 C 0 km/h
378 25-02-2011 03:33:04 1.6 C 4.87 g/m*3 1.6 C 0 km/h
379 25-02-2011 03:45:04 1.5 C 4.83 g/m*3 1.5 C 0 km/h
380 25-02-2011 03:57:04 1.4 C 4.8 g/m*3 1.4 C 0 km/h
381 25-02-2011 04:09:04 1.5 C 4.83 g/m*3 1.5 C 0 km/h
382 25-02-2011 04:21:04 1.4 C 4.8 g/m*3 1.4 C 0 km/h
383 25-02-2011 04:33:04 1.5 C 4.83 g/m*3 1.5 C 0 km/h
384 25-02-2011 04:45:05 1.5 C 4.83 g/m*3 1.5 C 0 km/h
385 25-02-2011 04:57:05 1.5 C 4.83 g/m*3 1.5 C 0 km/h
386 25-02-2011 05:09:05 1.6 C 4.92 g/m*3 1.6 C 0 km/h
387 25-02-2011 05:21:05 1.6 C 4.92 g/m*3 1.6 C 0 km/h
388 25-02-2011 05:33:05 1.6 C 4.92 g/m*3 1.6 C 0 km/h
389 25-02-2011 05:45:05 1.7 C 4.95 g/m*3 1.7 C 0 km/h
390 25-02-2011 05:57:05 1.7 C 4.95 g/m*3 1.7 C 0 km/h
391 25-02-2011 06:09:05 1.7 C 4.95 g/m*3 1.7 C 0 km/h
392 25-02-2011 06:21:05 1.6 C 4.92 g/m*3 1.6 C 0 km/h
393 25-02-2011 06:33:05 1.7 C 4.95 g/m*3 1.7 C 0 km/h
394 25-02-2011 06:45:05 1.7 C 4.95 g/m*3 1.7 C 0 km/h
395 25-02-2011 06:57:05 1.8 C 4.99 g/m*3 1.8 C 0 km/h
396 25-02-2011 07:09:05 1.8 C 4.99 g/m*3 1.8 C 0 km/h
397 25-02-2011 07:21:03 1.9 C 5.02 g/m*3 1.9 C 0 km/h
398 25-02-2011 07:33:02 1.9 C 5.02 g/m*3 1.9 C 0 km/h
399 25-02-2011 07:45:03 1.7 C 4.95 g/m*3 1.7 C 0 km/h
400 25-02-2011 07:57:03 1.8 C 4.99 g/m*3 1.8 C 0 km/h
Sensor: Nr:Datum:Temp:Abs-Feuchte:Windchill:Wind:
Aussen-T/F 401 25-02-2011 08:09:02 1.8 C 4.99 g/m*3 1.8 C 0 km/h
402 25-02-2011 08:21:02 2 C 5 g/m*3 2 C 0 km/h
403 25-02-2011 08:33:02 2.2 C 5.07 g/m*3 2.2 C 0 km/h
404 25-02-2011 08:45:02 2.4 C 5.2 g/m*3 2.4 C 0 km/h
405 25-02-2011 08:57:03 2.6 C 5.27 g/m*3 2.6 C 0 km/h
406 25-02-2011 09:09:01 2.6 C 5.21 g/m*3 2.6 C 0 km/h
407 25-02-2011 09:21:02 2.7 C 5.24 g/m*3 2.7 C 0 km/h
408 25-02-2011 09:33:02 2.7 C 5.24 g/m*3 2.7 C 0 km/h
409 25-02-2011 09:45:02 3.3 C 5.46 g/m*3 3.3 C 0 km/h
410 25-02-2011 09:57:02 3.3 C 5.4 g/m*3 3.3 C 0 km/h
411 25-02-2011 10:09:03 3.4 C 5.37 g/m*3 3.4 C 0 km/h
412 25-02-2011 10:21:02 3.3 C 5.28 g/m*3 3.3 C 0 km/h
413 25-02-2011 10:33:02 3.9 C 5.49 g/m*3 3.9 C 0 km/h
414 25-02-2011 10:45:01 4 C 5.4 g/m*3 4 C 0 km/h
415 25-02-2011 10:57:01 3.8 C 5.33 g/m*3 3.8 C 0 km/h
416 25-02-2011 11:09:02 4.4 C 5.42 g/m*3 4.4 C 0 km/h
417 25-02-2011 11:21:01 4.3 C 5.32 g/m*3 4.3 C 0 km/h
418 25-02-2011 11:33:01 4.3 C 5.25 g/m*3 4.3 C 0 km/h
419 25-02-2011 11:45:01 4.7 C 5.4 g/m*3 4.7 C 0 km/h
420 25-02-2011 11:57:01 5.1 C 5.34 g/m*3 5.1 C 0 km/h
421 25-02-2011 12:09:01 5.1 C 5.2 g/m*3 5.1 C 0 km/h
422 25-02-2011 12:21:02 5.6 C 5.3 g/m*3 5.6 C 0 km/h
423 25-02-2011 12:33:01 5.1 C 5.06 g/m*3 5.1 C 0 km/h
424 25-02-2011 12:45:03 5.6 C 5.23 g/m*3 5.6 C 0 km/h
425 25-02-2011 12:57:03 5.2 C 5.03 g/m*3 5.2 C 0 km/h
Sensor: Nr:Datum:Temp:Abs-Feuchte:Windchill:Wind:
Aussen-T/F 426 25-02-2011 13:09:02 5.8 C 5.3 g/m*3 5.8 C 0 km/h
427 25-02-2011 13:21:02 6.3 C 5.33 g/m*3 6.3 C 0 km/h
428 25-02-2011 13:33:02 6.3 C 5.18 g/m*3 6.3 C 0 km/h
429 25-02-2011 13:45:02 6.2 C 5.22 g/m*3 6.2 C 0 km/h
430 25-02-2011 13:57:03 6 C 5.08 g/m*3 6 C 0 km/h
431 25-02-2011 14:09:01 6.1 C 5.19 g/m*3 6.1 C 0 km/h
432 25-02-2011 14:21:02 6.2 C 5.22 g/m*3 6.2 C 0 km/h
433 25-02-2011 14:33:03 6.3 C 5.33 g/m*3 6.3 C 0 km/h
434 25-02-2011 14:45:02 5.8 C 5.09 g/m*3 5.8 C 0 km/h
435 25-02-2011 14:57:03 5.9 C 5.19 g/m*3 5.9 C 0 km/h
436 25-02-2011 15:09:01 6.3 C 5.26 g/m*3 6.3 C 0 km/h
437 25-02-2011 15:21:01 6.4 C 5.29 g/m*3 6.4 C 0 km/h
438 25-02-2011 15:33:02 6.1 C 5.11 g/m*3 6.1 C 0 km/h
439 25-02-2011 15:45:02 6 C 5.23 g/m*3 6 C 0 km/h
440 25-02-2011 15:57:02 5.9 C 5.34 g/m*3 5.9 C 0 km/h
441 25-02-2011 16:09:02 5.9 C 5.41 g/m*3 5.9 C 0 km/h
442 25-02-2011 16:21:02 5.4 C 5.3 g/m*3 5.4 C 0 km/h
443 25-02-2011 16:33:02 5.3 C 5.41 g/m*3 5.3 C 0 km/h
444 25-02-2011 16:45:02 5.2 C 5.44 g/m*3 5.2 C 0 km/h
445 25-02-2011 16:57:02 5.1 C 5.4 g/m*3 5.1 C 0 km/h
446 25-02-2011 17:09:02 5 C 5.37 g/m*3 5 C 0 km/h
447 25-02-2011 17:21:02 4.8 C 5.43 g/m*3 4.8 C 0 km/h
448 25-02-2011 17:33:02 4.8 C 5.3 g/m*3 4.8 C 0 km/h
449 25-02-2011 17:45:02 4.5 C 5.26 g/m*3 4.5 C 0 km/h
450 25-02-2011 17:57:02 4.2 C 5.22 g/m*3 4.2 C 0 km/h
Sensor: Nr:Datum:Temp:Abs-Feuchte:Windchill:Wind:
Aussen-T/F 451 25-02-2011 18:09:02 4.1 C 5.18 g/m*3 4.1 C 0 km/h
452 25-02-2011 18:21:02 4.1 C 5.25 g/m*3 4.1 C 0 km/h
453 25-02-2011 18:33:02 4.2 C 5.28 g/m*3 4.2 C 0 km/h
454 25-02-2011 18:45:02 4.3 C 5.32 g/m*3 4.3 C 0 km/h
455 25-02-2011 18:57:02 4.4 C 5.35 g/m*3 4.4 C 0 km/h
456 25-02-2011 19:09:02 4.1 C 5.25 g/m*3 4.1 C 0 km/h
457 25-02-2011 19:21:02 4 C 5.21 g/m*3 4 C 0 km/h
458 25-02-2011 19:33:01 3.8 C 5.21 g/m*3 3.8 C 0 km/h
459 25-02-2011 19:45:02 3.9 C 5.31 g/m*3 3.9 C 0 km/h
460 25-02-2011 19:57:02 3.9 C 5.31 g/m*3 3.9 C 0 km/h
461 25-02-2011 20:09:01 3.8 C 5.27 g/m*3 3.8 C 0 km/h
462 25-02-2011 20:21:01 3.8 C 5.27 g/m*3 3.8 C 0 km/h
463 25-02-2011 20:33:02 3.8 C 5.27 g/m*3 3.8 C 0 km/h
464 25-02-2011 20:45:02 3.9 C 5.37 g/m*3 3.9 C 0 km/h
465 25-02-2011 20:57:02 3.8 C 5.33 g/m*3 3.8 C 0 km/h
466 25-02-2011 21:09:02 3.7 C 5.3 g/m*3 3.7 C 0 km/h
467 25-02-2011 21:21:02 3.7 C 5.3 g/m*3 3.7 C 0 km/h
468 25-02-2011 21:33:02 3.6 C 5.26 g/m*3 3.6 C 0 km/h
469 25-02-2011 21:45:02 3.6 C 5.32 g/m*3 3.6 C 0 km/h
470 25-02-2011 21:57:02 3.6 C 5.32 g/m*3 3.6 C 0 km/h
471 25-02-2011 22:09:02 3.7 C 5.36 g/m*3 3.7 C 0 km/h
472 25-02-2011 22:21:03 3.7 C 5.36 g/m*3 3.7 C 0 km/h
473 25-02-2011 22:34:04 3.7 C 5.36 g/m*3 3.7 C 0 km/h
474 25-02-2011 22:46:04 3.8 C 5.46 g/m*3 3.8 C 0 km/h
475 25-02-2011 22:58:04 4 C 5.47 g/m*3 4 C 0 km/h
Sensor: Nr:Datum:Temp:Abs-Feuchte:Windchill:Wind:
Aussen-T/F 476 25-02-2011 23:10:04 4 C 5.4 g/m*3 4 C 0 km/h
477 25-02-2011 23:22:04 3.9 C 5.43 g/m*3 3.9 C 0 km/h
478 25-02-2011 23:34:04 3.8 C 5.4 g/m*3 3.8 C 0 km/h
479 25-02-2011 23:46:04 3.7 C 5.36 g/m*3 3.7 C 0 km/h
480 25-02-2011 23:58:04 3.6 C 5.32 g/m*3 3.6 C 0 km/h
481 26-02-2011 00:10:04 3.6 C 5.32 g/m*3 3.6 C 0 km/h
482 26-02-2011 00:22:04 3.6 C 5.32 g/m*3 3.6 C 0 km/h
483 26-02-2011 00:34:04 3.6 C 5.32 g/m*3 3.6 C 0 km/h
484 26-02-2011 00:46:04 3.6 C 5.32 g/m*3 3.6 C 0 km/h
485 26-02-2011 00:58:04 3.6 C 5.39 g/m*3 3.6 C 0 km/h
486 26-02-2011 01:10:04 3.6 C 5.39 g/m*3 3.6 C 0 km/h
487 26-02-2011 01:22:04 3.5 C 5.35 g/m*3 3.5 C 0 km/h
488 26-02-2011 01:34:04 3.5 C 5.35 g/m*3 3.5 C 0 km/h
489 26-02-2011 01:46:05 3.5 C 5.35 g/m*3 3.5 C 0 km/h
490 26-02-2011 01:58:05 3.5 C 5.35 g/m*3 3.5 C 0 km/h
491 26-02-2011 02:10:05 3.5 C 5.35 g/m*3 3.5 C 0 km/h
492 26-02-2011 02:22:05 3.5 C 5.35 g/m*3 3.5 C 0 km/h
493 26-02-2011 02:34:05 3.5 C 5.35 g/m*3 3.5 C 0 km/h
494 26-02-2011 02:46:05 3.5 C 5.35 g/m*3 3.5 C 0 km/h
495 26-02-2011 02:58:05 3.5 C 5.35 g/m*3 3.5 C 0 km/h
496 26-02-2011 03:10:05 3.5 C 5.29 g/m*3 3.5 C 0 km/h
497 26-02-2011 03:22:05 3.4 C 5.25 g/m*3 3.4 C 0 km/h
498 26-02-2011 03:34:05 3.4 C 5.25 g/m*3 3.4 C 0 km/h
499 26-02-2011 03:46:05 3.4 C 5.25 g/m*3 3.4 C 0 km/h
500 26-02-2011 03:58:05 3.4 C 5.25 g/m*3 3.4 C 0 km/h
Sensor: Nr:Datum:Temp:Abs-Feuchte:Windchill:Wind:
Aussen-T/F 501 26-02-2011 04:10:05 3.3 C 5.22 g/m*3 3.3 C 0 km/h
502 26-02-2011 04:22:05 3.3 C 5.22 g/m*3 3.3 C 0 km/h
503 26-02-2011 04:34:05 3.4 C 5.25 g/m*3 3.4 C 0 km/h
504 26-02-2011 04:46:05 3.5 C 5.29 g/m*3 3.5 C 0 km/h
505 26-02-2011 04:58:05 3.4 C 5.25 g/m*3 3.4 C 0 km/h
506 26-02-2011 05:10:05 3.3 C 5.22 g/m*3 3.3 C 0 km/h
507 26-02-2011 05:22:05 3.4 C 5.25 g/m*3 3.4 C 0 km/h
508 26-02-2011 05:34:05 3.8 C 5.33 g/m*3 3.8 C 0 km/h
509 26-02-2011 05:46:06 4.1 C 5.25 g/m*3 4.1 C 0 km/h
510 26-02-2011 05:58:06 4.1 C 5.06 g/m*3 4.1 C 0 km/h
511 26-02-2011 06:10:06 4.1 C 4.93 g/m*3 4.1 C 0 km/h
512 26-02-2011 06:22:06 4 C 4.9 g/m*3 4 C 0 km/h
513 26-02-2011 06:34:06 3.7 C 4.86 g/m*3 3.7 C 0 km/h
514 26-02-2011 06:46:06 3.4 C 4.83 g/m*3 3.4 C 0 km/h
515 26-02-2011 06:58:06 2.9 C 4.84 g/m*3 2.9 C 0 km/h
516 26-02-2011 07:10:06 2.7 C 4.84 g/m*3 2.7 C 0 km/h
517 26-02-2011 07:22:06 2.7 C 4.89 g/m*3 2.7 C 0 km/h
518 26-02-2011 07:34:06 2.6 C 4.92 g/m*3 2.6 C 0 km/h
519 26-02-2011 07:46:06 2.9 C 5.02 g/m*3 2.9 C 0 km/h
520 26-02-2011 07:58:06 3.6 C 5.14 g/m*3 3.6 C 0 km/h
521 26-02-2011 08:10:06 3.8 C 4.96 g/m*3 3.8 C 0 km/h
522 26-02-2011 08:22:06 3.8 C 4.89 g/m*3 3.8 C 0 km/h
523 26-02-2011 08:34:03 3.9 C 4.93 g/m*3 3.9 C 0 km/h
524 26-02-2011 08:46:02 4 C 4.83 g/m*3 4 C 0 km/h
525 26-02-2011 08:58:02 4.2 C 4.83 g/m*3 4.2 C 0 km/h
Sensor: Nr:Datum:Temp:Abs-Feuchte:Windchill:Wind:
Aussen-T/F 526 26-02-2011 09:10:02 4.2 C 4.77 g/m*3 4.2 C 0 km/h
527 26-02-2011 09:22:02 4.2 C 4.7 g/m*3 4.2 C 0 km/h
528 26-02-2011 09:34:02 4.1 C 4.67 g/m*3 4.1 C 0 km/h
529 26-02-2011 09:46:02 3.9 C 4.61 g/m*3 3.9 C 0 km/h
530 26-02-2011 09:58:03 4.1 C 4.61 g/m*3 4.1 C 0 km/h
531 26-02-2011 10:10:01 4.1 C 4.61 g/m*3 4.1 C 0 km/h
532 26-02-2011 10:22:02 4.3 C 4.61 g/m*3 4.3 C 0 km/h
533 26-02-2011 10:34:02 4.7 C 4.6 g/m*3 4.7 C 0 km/h
534 26-02-2011 10:46:02 5.2 C 4.61 g/m*3 5.2 C 0 km/h
535 26-02-2011 10:58:02 5.7 C 4.63 g/m*3 5.7 C 0 km/h
536 26-02-2011 11:10:03 5.6 C 4.45 g/m*3 5.6 C 0 km/h
537 26-02-2011 11:22:02 5.6 C 4.38 g/m*3 5.6 C 0 km/h
538 26-02-2011 11:34:03 5.6 C 4.38 g/m*3 5.6 C 0 km/h
539 26-02-2011 11:46:02 6.5 C 4.65 g/m*3 6.5 C 0 km/h
540 26-02-2011 11:58:02 6.1 C 4.38 g/m*3 6.1 C 0 km/h
541 26-02-2011 12:10:02 7.4 C 4.61 g/m*3 7.4 C 0 km/h
542 26-02-2011 12:22:02 7.8 C 4.57 g/m*3 7.8 C 0 km/h
543 26-02-2011 12:34:02 8 C 4.38 g/m*3 8 C 0 km/h
544 26-02-2011 12:46:02 7.7 C 4.46 g/m*3 7.7 C 0 km/h
545 26-02-2011 12:58:02 7.1 C 4.45 g/m*3 7.1 C 0 km/h
546 26-02-2011 13:10:02 7.4 C 4.53 g/m*3 7.4 C 0 km/h
547 26-02-2011 13:22:02 8.4 C 4.58 g/m*3 8.4 C 0 km/h
548 26-02-2011 13:34:02 8.6 C 4.38 g/m*3 8.6 C 0 km/h
549 26-02-2011 13:46:02 8.9 C 4.64 g/m*3 8.9 C 0 km/h
550 26-02-2011 13:58:02 8.7 C 4.58 g/m*3 8.7 C 0 km/h
Sensor: Nr:Datum:Temp:Abs-Feuchte:Windchill:Wind:
Aussen-T/F 551 26-02-2011 14:10:02 8.6 C 4.55 g/m*3 8.6 C 0 km/h
552 26-02-2011 14:22:02 8 C 4.63 g/m*3 8 C 0 km/h
553 26-02-2011 14:34:02 8.9 C 4.73 g/m*3 8.9 C 0 km/h
554 26-02-2011 14:46:02 9.5 C 4.64 g/m*3 9.5 C 0 km/h
555 26-02-2011 14:58:02 8.8 C 4.53 g/m*3 8.8 C 0 km/h
556 26-02-2011 15:10:02 8.7 C 4.58 g/m*3 8.7 C 0 km/h
557 26-02-2011 15:22:03 8 C 4.63 g/m*3 8 C 0 km/h
558 26-02-2011 15:34:02 7.7 C 4.7 g/m*3 7.7 C 0 km/h
559 26-02-2011 15:46:02 7.7 C 4.87 g/m*3 7.7 C 0 km/h
560 26-02-2011 15:58:02 7.8 C 4.73 g/m*3 7.8 C 0 km/h
561 26-02-2011 16:10:02 7.7 C 4.7 g/m*3 7.7 C 0 km/h
562 26-02-2011 16:22:02 7.4 C 4.77 g/m*3 7.4 C 0 km/h
563 26-02-2011 16:34:01 7 C 4.8 g/m*3 7 C 0 km/h
564 26-02-2011 16:46:02 6.9 C 4.93 g/m*3 6.9 C 0 km/h
565 26-02-2011 16:58:03 6.7 C 4.94 g/m*3 6.7 C 0 km/h
566 26-02-2011 17:10:01 6.7 C 5.01 g/m*3 6.7 C 0 km/h
567 26-02-2011 17:22:01 6.6 C 5.06 g/m*3 6.6 C 0 km/h
568 26-02-2011 17:34:02 6.4 C 5.07 g/m*3 6.4 C 0 km/h
569 26-02-2011 17:46:02 6.3 C 5.11 g/m*3 6.3 C 0 km/h
570 26-02-2011 17:58:02 6 C 5.15 g/m*3 6 C 0 km/h
571 26-02-2011 18:10:02 5.8 C 5.3 g/m*3 5.8 C 0 km/h
572 26-02-2011 18:22:02 5.8 C 5.37 g/m*3 5.8 C 0 km/h
573 26-02-2011 18:34:02 5.6 C 5.37 g/m*3 5.6 C 0 km/h
574 26-02-2011 18:46:02 5.4 C 5.37 g/m*3 5.4 C 0 km/h
575 26-02-2011 18:58:02 5.2 C 5.51 g/m*3 5.2 C 0 km/h
Sensor: Nr:Datum:Temp:Abs-Feuchte:Windchill:Wind:
Aussen-T/F 576 26-02-2011 19:10:02 5.1 C 5.68 g/m*3 5.1 C 0 km/h
577 26-02-2011 19:22:02 5 C 5.71 g/m*3 5 C 0 km/h
578 26-02-2011 19:34:02 5 C 5.71 g/m*3 5 C 0 km/h
579 26-02-2011 19:46:02 4.8 C 5.77 g/m*3 4.8 C 0 km/h
580 26-02-2011 19:58:02 4.9 C 5.81 g/m*3 4.9 C 0 km/h
581 26-02-2011 20:10:02 4.8 C 5.77 g/m*3 4.8 C 0 km/h
582 26-02-2011 20:22:02 4.9 C 5.81 g/m*3 4.9 C 0 km/h
583 26-02-2011 20:34:02 4.7 C 5.8 g/m*3 4.7 C 0 km/h
584 26-02-2011 20:46:02 4.7 C 5.8 g/m*3 4.7 C 0 km/h
585 26-02-2011 20:58:02 4.6 C 5.76 g/m*3 4.6 C 0 km/h
586 26-02-2011 21:10:02 4.6 C 5.82 g/m*3 4.6 C 0 km/h
587 26-02-2011 21:22:02 4.6 C 5.82 g/m*3 4.6 C 0 km/h
588 26-02-2011 21:34:01 4.6 C 5.82 g/m*3 4.6 C 0 km/h
589 26-02-2011 21:47:02 4.6 C 5.82 g/m*3 4.6 C 0 km/h
590 26-02-2011 21:59:02 4.6 C 5.82 g/m*3 4.6 C 0 km/h
591 26-02-2011 22:11:02 4.7 C 5.86 g/m*3 4.7 C 0 km/h
592 26-02-2011 22:23:02 4.6 C 5.89 g/m*3 4.6 C 0 km/h
593 26-02-2011 22:35:02 4.4 C 5.81 g/m*3 4.4 C 0 km/h
594 26-02-2011 22:47:02 4.4 C 5.81 g/m*3 4.4 C 0 km/h
595 26-02-2011 22:59:02 4.3 C 5.77 g/m*3 4.3 C 0 km/h
596 26-02-2011 23:11:02 4.3 C 5.77 g/m*3 4.3 C 0 km/h
597 26-02-2011 23:23:02 4.4 C 5.81 g/m*3 4.4 C 0 km/h
598 26-02-2011 23:35:02 4.7 C 6 g/m*3 4.7 C 0 km/h
599 26-02-2011 23:47:02 5 C 6.05 g/m*3 5 C 0 km/h
600 26-02-2011 23:59:03 5.1 C 6.09 g/m*3 5.1 C 0 km/h

Legende:
   Min
   Max


Maximal/Minimal-Werte vom 22.02.2011 - 26.02.2011

Sensor Min Max Avg
Temp
(Aussen-T/F)
-9.5 °C
23-02-2011  06:31:05
9.5 °C
26-02-2011  14:46:02
0.67 °C
Abs-Feuchte
(Aussen-T/F)
1.13 g/m*3
23-02-2011  17:07:02
6.09 g/m*3
26-02-2011  23:59:03
3.59 g/m*3
Windchill
(Aussen-T/F)
-9.5 C
23-02-2011  06:31:05
9.5 C
26-02-2011  14:46:02
0.67 C

Die Daten stammen von einer Davis Vantage Pro 2 Wetter-Station und werden unter Linux mit der Software wview2wettercgi und aufbereitet. Alle Angaben erfolgen ohne Gewähr für ihre Vollständigkeit oder Richtigkeit.
Kontakt: Rainer Krienke krienke@uni-koblenz.de . Meine Webseiten an der Uni Koblenz oder privat.
Version: $Revision: 0.78 $